createdAt,value
2022-09-30T00:01:55.562Z,15.65
2022-09-30T00:04:24.908Z,14.95
2022-09-30T00:06:55.405Z,14.07
2022-09-30T00:09:26.176Z,16.05
2022-09-30T00:11:56.309Z,16.87
2022-09-30T00:14:25.984Z,13.93
2022-09-30T00:16:56.579Z,13.90
2022-09-30T00:19:25.820Z,16.10
2022-09-30T00:21:55.306Z,16.23
2022-09-30T00:24:24.761Z,15.25
2022-09-30T00:26:54.493Z,12.98
2022-09-30T00:29:23.953Z,15.48
2022-09-30T00:31:53.447Z,15.80
2022-09-30T00:34:22.964Z,14.45
2022-09-30T00:36:53.819Z,13.45
2022-09-30T00:39:25.947Z,14.47
2022-09-30T00:42:01.026Z,15.10
2022-09-30T00:44:52.528Z,15.28
2022-09-30T00:47:43.505Z,13.65
2022-09-30T00:50:33.950Z,14.53
2022-09-30T00:53:14.368Z,17.05
2022-09-30T00:56:00.807Z,13.68
2022-09-30T00:58:53.036Z,15.15
2022-09-30T01:01:22.510Z,17.12
2022-09-30T01:03:55.732Z,14.68
2022-09-30T01:06:25.699Z,13.93
2022-09-30T01:08:57.383Z,14.10
2022-09-30T01:11:28.299Z,16.85
2022-09-30T01:14:06.141Z,14.85
2022-09-30T01:16:44.265Z,13.50
2022-09-30T01:19:45.333Z,12.10
2022-09-30T01:22:38.800Z,15.32
2022-09-30T01:25:26.612Z,14.95
2022-09-30T01:28:18.097Z,11.90
2022-09-30T01:31:12.779Z,14.00
2022-09-30T01:34:19.553Z,13.83
2022-09-30T01:37:02.884Z,11.97
2022-09-30T01:39:56.942Z,12.78
2022-09-30T01:42:43.860Z,12.20
2022-09-30T01:45:35.227Z,11.68
2022-09-30T01:48:29.775Z,14.20
2022-09-30T01:51:15.336Z,12.55
2022-09-30T01:53:58.411Z,12.88
2022-09-30T01:56:42.922Z,12.15
2022-09-30T01:59:20.233Z,10.98
2022-09-30T02:04:36.773Z,10.30
2022-09-30T02:07:14.485Z,13.60
2022-09-30T02:09:55.158Z,10.40
2022-09-30T02:12:27.037Z,11.90
2022-09-30T02:15:01.500Z,13.80
2022-09-30T02:17:36.490Z,10.38
2022-09-30T02:20:10.877Z,11.57
2022-09-30T02:22:46.880Z,11.73
2022-09-30T02:25:20.327Z,11.40
2022-09-30T02:27:54.691Z,10.90
2022-09-30T02:30:24.609Z,11.35
2022-09-30T02:33:00.514Z,14.03
2022-09-30T02:35:37.659Z,12.40
2022-09-30T02:38:19.476Z,15.90
2022-09-30T02:40:55.911Z,10.00
2022-09-30T02:43:27.303Z,11.63
2022-09-30T02:46:23.082Z,11.12
2022-09-30T02:49:24.143Z,11.45
2022-09-30T02:52:08.445Z,14.93
2022-09-30T02:55:07.711Z,13.65
2022-09-30T02:58:00.944Z,13.53
2022-09-30T03:00:31.969Z,14.60
2022-09-30T03:03:12.055Z,11.20
2022-09-30T03:05:41.723Z,12.40
2022-09-30T03:08:11.386Z,11.43
2022-09-30T03:10:41.402Z,13.58
2022-09-30T03:13:45.972Z,10.90
2022-09-30T03:16:47.354Z,9.83
2022-09-30T03:20:01.471Z,14.45
2022-09-30T03:22:56.881Z,11.50
2022-09-30T03:25:54.940Z,12.53
2022-09-30T03:28:38.133Z,10.28
2022-09-30T03:31:18.150Z,11.00
2022-09-30T03:34:00.991Z,10.80
2022-09-30T03:37:18.603Z,13.25
2022-09-30T03:40:11.508Z,13.32
2022-09-30T03:42:47.743Z,13.20
2022-09-30T03:45:39.695Z,11.15
2022-09-30T03:48:09.968Z,11.35
2022-09-30T03:50:40.393Z,18.12
2022-09-30T03:53:12.387Z,10.75
2022-09-30T03:55:48.889Z,13.98
2022-09-30T03:58:19.423Z,14.28
2022-09-30T04:00:52.666Z,11.48
2022-09-30T04:03:23.165Z,13.62
2022-09-30T04:05:53.402Z,14.90
2022-09-30T04:08:23.800Z,16.35
2022-09-30T04:10:53.578Z,16.77
2022-09-30T04:13:23.840Z,18.92
2022-09-30T04:15:56.655Z,15.83
2022-09-30T04:18:26.391Z,13.88
2022-09-30T04:20:56.239Z,15.53
2022-09-30T04:23:25.412Z,18.00
2022-09-30T04:25:56.001Z,17.65
2022-09-30T04:28:26.483Z,14.98
2022-09-30T04:30:57.875Z,23.40
2022-09-30T04:33:27.299Z,18.82
2022-09-30T04:35:58.184Z,17.10
2022-09-30T04:38:29.194Z,19.25
2022-09-30T04:41:01.316Z,22.07
2022-09-30T04:43:30.446Z,19.98
2022-09-30T04:46:00.091Z,17.65
2022-09-30T04:48:31.383Z,18.35
2022-09-30T04:51:01.465Z,22.07
2022-09-30T04:53:31.384Z,17.37
2022-09-30T04:56:01.509Z,14.93
2022-09-30T04:58:36.719Z,13.45
2022-09-30T05:01:10.652Z,15.93
2022-09-30T05:03:43.151Z,13.83
2022-09-30T05:06:13.177Z,14.83
2022-09-30T05:08:45.956Z,13.78
2022-09-30T05:11:17.626Z,14.28
2022-09-30T05:13:47.671Z,15.13
2022-09-30T05:16:17.621Z,12.47
2022-09-30T05:18:47.440Z,11.75
2022-09-30T05:21:20.287Z,12.55
2022-09-30T05:23:49.235Z,15.23
2022-09-30T05:26:19.223Z,18.17
2022-09-30T05:28:50.471Z,18.60
2022-09-30T05:31:20.851Z,14.95
2022-09-30T05:33:58.052Z,18.05
2022-09-30T05:36:26.422Z,12.10
2022-09-30T05:38:58.005Z,13.93
2022-09-30T05:41:28.439Z,13.72
2022-09-30T05:44:01.125Z,15.15
2022-09-30T05:46:31.173Z,14.63
2022-09-30T05:49:00.589Z,12.60
2022-09-30T05:51:29.953Z,14.68
2022-09-30T05:53:59.532Z,12.90
2022-09-30T05:56:29.497Z,15.43
2022-09-30T05:58:58.323Z,13.48
2022-09-30T06:01:27.099Z,14.50
2022-09-30T06:03:56.771Z,18.98
2022-09-30T06:06:26.531Z,18.82
2022-09-30T06:08:55.294Z,14.70
2022-09-30T06:11:24.728Z,21.25
2022-09-30T06:13:56.138Z,17.60
2022-09-30T06:16:26.035Z,14.70
2022-09-30T06:18:56.023Z,17.40
2022-09-30T06:21:25.881Z,13.93
2022-09-30T06:23:54.750Z,13.18
2022-09-30T06:26:24.236Z,16.45
2022-09-30T06:28:54.543Z,14.95
2022-09-30T06:31:24.630Z,13.53
2022-09-30T06:33:54.395Z,15.63
2022-09-30T06:36:23.761Z,16.50
2022-09-30T06:38:54.370Z,17.10
2022-09-30T06:41:25.323Z,15.70
2022-09-30T06:43:58.150Z,15.32
2022-09-30T06:46:30.928Z,18.30
2022-09-30T06:49:09.381Z,19.02
2022-09-30T06:51:32.664Z,16.10
2022-09-30T06:54:02.166Z,17.50
2022-09-30T06:56:31.958Z,19.50
2022-09-30T06:59:02.142Z,16.15
2022-09-30T07:01:31.768Z,21.75
2022-09-30T07:04:04.968Z,16.95
2022-09-30T07:06:35.437Z,23.32
2022-09-30T07:09:06.037Z,21.52
2022-09-30T07:11:38.837Z,18.80
2022-09-30T07:14:09.972Z,21.12
2022-09-30T07:16:40.235Z,19.05
2022-09-30T07:19:11.721Z,22.82
2022-09-30T07:21:41.270Z,21.70
2022-09-30T07:24:11.371Z,27.10
2022-09-30T07:26:44.847Z,19.20
2022-09-30T07:29:16.654Z,20.02
2022-09-30T07:31:46.674Z,21.45
2022-09-30T07:34:16.318Z,18.50
2022-09-30T07:36:49.158Z,21.97
2022-09-30T07:39:18.046Z,20.30
2022-09-30T07:41:48.385Z,19.55
2022-09-30T07:44:18.493Z,23.10
2022-09-30T07:46:47.861Z,25.05
2022-09-30T07:49:20.641Z,20.55
2022-09-30T07:51:49.904Z,27.80
2022-09-30T07:54:25.324Z,20.12
2022-09-30T07:57:11.003Z,20.72
2022-09-30T07:59:26.976Z,23.80
2022-09-30T08:01:56.741Z,23.62
2022-09-30T08:04:26.776Z,19.57
2022-09-30T08:06:58.147Z,20.20
2022-09-30T08:09:28.931Z,22.73
2022-09-30T08:11:58.268Z,22.70
2022-09-30T08:14:28.959Z,18.98
2022-09-30T08:16:59.956Z,17.82
2022-09-30T08:19:32.663Z,19.55
2022-09-30T08:24:32.665Z,18.95
2022-09-30T08:27:01.385Z,22.62
2022-09-30T08:32:02.408Z,19.45
2022-09-30T08:34:35.010Z,19.87
2022-09-30T08:37:09.304Z,20.62
2022-09-30T08:39:38.343Z,20.88
2022-09-30T08:42:40.340Z,16.90
2022-09-30T08:45:21.894Z,19.27
2022-09-30T08:48:05.005Z,20.52
2022-09-30T08:50:54.781Z,22.75
2022-09-30T08:53:26.686Z,19.37
2022-09-30T08:55:57.871Z,18.87
2022-09-30T08:58:32.258Z,18.37
2022-09-30T09:01:31.105Z,19.10
2022-09-30T09:04:03.416Z,26.20
2022-09-30T09:07:10.723Z,18.20
2022-09-30T09:09:58.649Z,20.43
2022-09-30T09:12:45.081Z,19.02
2022-09-30T09:15:51.582Z,18.77
2022-09-30T09:18:42.408Z,18.32
2022-09-30T09:21:24.711Z,22.67
2022-09-30T09:23:54.436Z,20.35
2022-09-30T09:26:24.012Z,24.60
2022-09-30T09:29:33.982Z,22.85
2022-09-30T09:32:07.996Z,22.75
2022-09-30T09:34:40.233Z,19.05
2022-09-30T09:37:51.136Z,19.95
2022-09-30T09:40:28.906Z,23.47
2022-09-30T09:43:09.922Z,22.05
2022-09-30T09:46:00.657Z,22.62
2022-09-30T09:48:32.892Z,22.58
2022-09-30T09:51:26.991Z,24.95
2022-09-30T09:53:57.868Z,19.55
2022-09-30T09:56:32.253Z,25.02
2022-09-30T09:59:20.601Z,21.48
2022-09-30T10:01:54.056Z,24.25
2022-09-30T10:04:30.161Z,24.98
2022-09-30T10:07:02.163Z,19.17
2022-09-30T10:09:34.822Z,24.37
2022-09-30T10:12:15.657Z,22.90
2022-09-30T10:14:55.141Z,21.75
2022-09-30T10:17:34.046Z,20.88
2022-09-30T10:20:23.642Z,23.30
2022-09-30T10:22:53.361Z,20.43
2022-09-30T10:25:25.679Z,24.95
2022-09-30T10:28:00.779Z,20.77
2022-09-30T10:30:38.589Z,19.25
2022-09-30T10:33:29.829Z,21.05
2022-09-30T10:36:09.220Z,16.82
2022-09-30T10:41:09.711Z,22.13
2022-09-30T10:43:44.175Z,21.35
2022-09-30T10:46:25.661Z,21.68
2022-09-30T10:48:45.441Z,26.95
2022-09-30T10:51:35.823Z,27.15
2022-09-30T10:54:06.316Z,26.95
2022-09-30T10:56:44.953Z,26.27
2022-09-30T10:59:25.141Z,23.95
2022-09-30T11:01:59.288Z,26.10
2022-09-30T11:04:39.437Z,20.92
2022-09-30T11:07:31.395Z,21.70
2022-09-30T11:10:42.034Z,20.52
2022-09-30T11:13:42.947Z,26.73
2022-09-30T11:16:23.511Z,22.20
2022-09-30T11:19:12.672Z,25.37
2022-09-30T11:21:48.791Z,25.08
2022-09-30T11:24:41.201Z,26.07
2022-09-30T11:27:30.788Z,27.73
2022-09-30T11:30:15.593Z,20.97
2022-09-30T11:32:55.967Z,24.18
2022-09-30T11:35:35.751Z,23.30
2022-09-30T11:38:40.516Z,23.22
2022-09-30T11:41:29.556Z,27.62
2022-09-30T11:44:37.859Z,23.62
2022-09-30T11:47:45.878Z,26.55
2022-09-30T11:50:23.246Z,21.40
2022-09-30T11:53:33.102Z,25.55
2022-09-30T11:56:22.646Z,23.22
2022-09-30T11:58:53.901Z,23.50
2022-09-30T12:01:33.749Z,21.00
2022-09-30T12:04:38.195Z,21.20
2022-09-30T12:07:23.840Z,19.92
2022-09-30T12:10:04.292Z,20.25
2022-09-30T12:12:34.449Z,20.50
2022-09-30T12:15:05.600Z,22.80
2022-09-30T12:17:58.806Z,18.92
2022-09-30T12:20:47.700Z,23.87
2022-09-30T12:23:21.121Z,25.62
2022-09-30T12:26:02.210Z,20.10
2022-09-30T12:29:14.022Z,26.80
2022-09-30T12:32:21.614Z,22.90
2022-09-30T12:35:22.354Z,20.88
2022-09-30T12:38:18.062Z,19.95
2022-09-30T12:40:58.081Z,22.77
2022-09-30T12:44:09.854Z,21.48
2022-09-30T12:46:59.692Z,25.17
2022-09-30T12:49:28.807Z,20.43
2022-09-30T12:52:04.028Z,22.75
2022-09-30T12:54:40.436Z,24.92
2022-09-30T12:57:09.805Z,22.82
2022-09-30T12:59:42.477Z,25.72
2022-09-30T13:02:32.241Z,21.55
2022-09-30T13:05:39.390Z,21.68
2022-09-30T13:08:14.357Z,21.65
2022-09-30T13:10:47.975Z,22.85
2022-09-30T13:13:37.166Z,21.12
2022-09-30T13:16:09.830Z,20.65
2022-09-30T13:18:50.830Z,28.40
2022-09-30T13:21:22.680Z,20.15
2022-09-30T13:23:55.370Z,27.77
2022-09-30T13:26:34.200Z,20.30
2022-09-30T13:29:20.741Z,21.30
2022-09-30T13:31:55.793Z,22.67
2022-09-30T13:34:28.100Z,40.05
2022-09-30T13:37:02.481Z,63.17
2022-09-30T13:39:55.451Z,37.25
2022-09-30T13:42:29.011Z,55.67
2022-09-30T13:45:20.926Z,63.95
2022-09-30T13:47:58.531Z,33.65
2022-09-30T13:50:34.722Z,31.50
2022-09-30T13:53:07.712Z,25.37
2022-09-30T13:55:44.568Z,32.00
2022-09-30T13:58:44.448Z,26.73
2022-09-30T14:01:38.861Z,21.00
2022-09-30T14:04:47.161Z,28.73
2022-09-30T14:07:36.571Z,21.60
2022-09-30T14:10:37.191Z,22.52
2022-09-30T14:13:30.957Z,21.52
2022-09-30T14:16:31.238Z,21.37
2022-09-30T14:19:25.324Z,19.10
2022-09-30T14:21:56.819Z,23.90
2022-09-30T14:24:31.782Z,24.15
2022-09-30T14:27:15.626Z,25.68
2022-09-30T14:30:07.595Z,21.40
2022-09-30T14:32:50.190Z,93.03
2022-09-30T14:35:28.089Z,23.50
2022-09-30T14:38:27.752Z,20.97
2022-09-30T14:41:04.116Z,22.58
2022-09-30T14:43:37.796Z,21.62
2022-09-30T14:46:10.800Z,25.20
2022-09-30T14:48:41.868Z,21.62
2022-09-30T14:51:19.136Z,21.05
2022-09-30T14:53:56.561Z,23.75
2022-09-30T14:56:36.615Z,20.52
2022-09-30T14:59:18.966Z,20.60
2022-09-30T15:01:51.023Z,26.05
2022-09-30T15:04:25.044Z,24.10
2022-09-30T15:06:53.746Z,24.35
2022-09-30T15:09:46.003Z,20.80
2022-09-30T15:12:20.407Z,24.55
2022-09-30T15:15:00.053Z,23.77
2022-09-30T15:17:30.932Z,29.80
2022-09-30T15:20:02.204Z,20.72
2022-09-30T15:22:31.851Z,21.05
2022-09-30T15:25:01.191Z,23.83
2022-09-30T15:27:31.684Z,23.40
2022-09-30T15:30:04.568Z,25.35
2022-09-30T15:32:34.821Z,22.75
2022-09-30T15:35:20.407Z,25.85
2022-09-30T15:37:52.288Z,28.30
2022-09-30T15:40:41.329Z,22.13
2022-09-30T15:43:16.332Z,24.25
2022-09-30T15:45:48.165Z,22.30
2022-09-30T15:48:32.923Z,27.10
2022-09-30T15:51:05.697Z,23.47
2022-09-30T15:53:44.193Z,33.60
2022-09-30T15:56:37.797Z,30.27
2022-09-30T15:59:08.143Z,29.57
2022-09-30T16:01:50.754Z,32.17
2022-09-30T16:04:24.313Z,24.00
2022-09-30T16:06:59.649Z,24.72
2022-09-30T16:09:35.955Z,25.92
2022-09-30T16:12:18.191Z,27.77
2022-09-30T16:15:00.159Z,22.40
2022-09-30T16:17:35.674Z,27.17
2022-09-30T16:20:10.758Z,26.68
2022-09-30T16:22:49.313Z,24.43
2022-09-30T16:25:28.809Z,27.98
2022-09-30T16:28:14.662Z,24.30
2022-09-30T16:30:49.727Z,25.25
2022-09-30T16:33:20.503Z,25.00
2022-09-30T16:35:50.647Z,27.77
2022-09-30T16:38:21.279Z,29.42
2022-09-30T16:40:50.693Z,29.75
2022-09-30T16:43:19.714Z,73.45
2022-09-30T16:45:49.781Z,45.78
2022-09-30T16:48:21.222Z,40.12
2022-09-30T16:51:03.866Z,37.90
2022-09-30T16:53:37.151Z,40.50
2022-09-30T16:56:06.982Z,46.45
2022-09-30T16:58:39.959Z,40.03
2022-09-30T17:01:21.350Z,27.30
2022-09-30T17:03:50.435Z,31.37
2022-09-30T17:06:20.986Z,30.65
2022-09-30T17:08:50.952Z,24.72
2022-09-30T17:11:31.183Z,29.27
2022-09-30T17:14:00.926Z,36.23
2022-09-30T17:16:31.513Z,28.80
2022-09-30T17:19:01.581Z,28.65
2022-09-30T17:21:32.025Z,28.83
2022-09-30T17:24:02.438Z,25.70
2022-09-30T17:26:33.094Z,26.87
2022-09-30T17:29:21.128Z,24.80
2022-09-30T17:31:36.578Z,31.45
2022-09-30T17:34:07.405Z,26.80
2022-09-30T17:36:38.922Z,27.73
2022-09-30T17:39:11.127Z,25.30
2022-09-30T17:42:00.520Z,24.57
2022-09-30T17:44:30.655Z,29.72
2022-09-30T17:47:00.348Z,30.52
2022-09-30T17:49:35.171Z,35.92
2022-09-30T17:52:05.848Z,31.37
2022-09-30T17:54:35.581Z,30.52
2022-09-30T17:57:04.612Z,32.55
2022-09-30T17:59:35.019Z,31.07
2022-09-30T18:02:03.861Z,30.82
2022-09-30T18:04:34.876Z,34.98
2022-09-30T18:07:05.950Z,29.23
2022-09-30T18:09:36.932Z,29.48
2022-09-30T18:12:07.533Z,30.65
2022-09-30T18:14:38.301Z,30.48
2022-09-30T18:17:10.157Z,30.72
2022-09-30T18:19:39.043Z,32.40
2022-09-30T18:22:10.388Z,29.72
2022-09-30T18:24:59.030Z,28.75
2022-09-30T18:27:31.822Z,28.60
2022-09-30T18:30:04.680Z,28.30
2022-09-30T18:32:35.364Z,30.32
2022-09-30T18:35:08.940Z,36.68
2022-09-30T18:37:41.844Z,32.55
2022-09-30T18:40:11.938Z,36.95
2022-09-30T18:42:43.217Z,34.60
2022-09-30T18:45:12.655Z,36.28
2022-09-30T18:47:43.669Z,30.68
2022-09-30T18:50:14.621Z,36.90
2022-09-30T18:52:43.496Z,35.50
2022-09-30T18:55:14.774Z,34.60
2022-09-30T18:57:48.763Z,37.60
2022-09-30T19:00:18.511Z,34.30
2022-09-30T19:02:51.241Z,32.65
2022-09-30T19:05:20.873Z,37.10
2022-09-30T19:07:49.667Z,36.08
2022-09-30T19:10:19.180Z,36.83
2022-09-30T19:12:49.878Z,34.50
2022-09-30T19:15:23.456Z,34.00
2022-09-30T19:17:53.401Z,33.55
2022-09-30T19:20:23.229Z,36.17
2022-09-30T19:22:52.997Z,34.08
2022-09-30T19:25:22.855Z,40.60
2022-09-30T19:27:54.478Z,36.05
2022-09-30T19:30:25.675Z,34.10
2022-09-30T19:33:00.751Z,36.13
2022-09-30T19:35:40.059Z,40.05
2022-09-30T19:38:03.134Z,43.52
2022-09-30T19:43:02.555Z,37.13
2022-09-30T19:45:32.175Z,37.95
2022-09-30T19:48:02.823Z,39.45
2022-09-30T19:50:34.458Z,35.83
2022-09-30T19:53:05.918Z,35.25
2022-09-30T19:55:48.916Z,34.92
2022-09-30T19:58:07.833Z,36.45
2022-09-30T20:00:37.975Z,32.58
2022-09-30T20:03:07.877Z,38.78
2022-09-30T20:05:36.762Z,37.42
2022-09-30T20:08:06.737Z,37.03
2022-09-30T20:10:37.188Z,35.00
2022-09-30T20:13:06.032Z,30.65
2022-09-30T20:15:53.165Z,33.20
2022-09-30T20:18:21.901Z,32.98
2022-09-30T20:20:54.534Z,37.70
2022-09-30T20:23:24.694Z,34.27
2022-09-30T20:25:54.156Z,34.58
2022-09-30T20:28:23.897Z,35.08
2022-09-30T20:30:53.193Z,32.65
2022-09-30T20:33:26.681Z,36.10
2022-09-30T20:35:56.363Z,39.30
2022-09-30T20:38:25.156Z,34.35
2022-09-30T20:40:58.607Z,35.48
2022-09-30T20:43:30.241Z,35.95
2022-09-30T20:46:02.991Z,35.75
2022-09-30T20:48:38.985Z,34.78
2022-09-30T20:51:11.665Z,36.80
2022-09-30T20:53:44.489Z,35.33
2022-09-30T20:56:15.082Z,32.03
2022-09-30T20:58:45.002Z,37.63
2022-09-30T21:01:17.246Z,35.20
2022-09-30T21:03:52.572Z,33.02
2022-09-30T21:06:30.777Z,34.75
2022-09-30T21:09:02.829Z,38.20
2022-09-30T21:11:33.273Z,35.45
2022-09-30T21:14:04.801Z,34.80
2022-09-30T21:16:34.823Z,34.90
2022-09-30T21:19:05.649Z,34.95
2022-09-30T21:21:36.098Z,34.27
2022-09-30T21:24:07.189Z,32.70
2022-09-30T21:26:38.549Z,34.13
2022-09-30T21:29:08.344Z,34.53
2022-09-30T21:31:38.949Z,31.33
2022-09-30T21:34:12.023Z,32.85
2022-09-30T21:36:42.037Z,33.58
2022-09-30T21:39:12.633Z,32.63
2022-09-30T21:41:44.446Z,33.28
2022-09-30T21:44:15.039Z,34.35
2022-09-30T21:46:48.520Z,34.03
2022-09-30T21:49:21.391Z,37.65
2022-09-30T21:51:52.514Z,38.73
2022-09-30T21:54:23.198Z,33.95
2022-09-30T21:56:53.546Z,32.50
2022-09-30T21:59:22.921Z,35.38
2022-09-30T22:01:52.743Z,33.48
2022-09-30T22:04:22.822Z,32.85
2022-09-30T22:06:53.177Z,37.55
2022-09-30T22:09:23.383Z,35.80
2022-09-30T22:11:54.785Z,34.85
2022-09-30T22:14:25.158Z,33.15
2022-09-30T22:16:55.365Z,33.67
2022-09-30T22:19:24.550Z,33.40
2022-09-30T22:21:53.468Z,35.10
2022-09-30T22:24:22.700Z,34.55
2022-09-30T22:26:53.352Z,32.70
2022-09-30T22:29:23.568Z,33.98
2022-09-30T22:31:53.319Z,35.05
2022-09-30T22:34:41.947Z,33.33
2022-09-30T22:37:29.471Z,30.68
2022-09-30T22:40:01.014Z,32.88
2022-09-30T22:42:30.448Z,34.73
2022-09-30T22:45:00.978Z,33.05
2022-09-30T22:47:30.793Z,32.67
2022-09-30T22:50:08.083Z,31.40
2022-09-30T22:52:41.050Z,33.00
2022-09-30T22:55:11.962Z,32.40
2022-09-30T22:57:42.987Z,32.63
2022-09-30T23:00:15.191Z,31.87
2022-09-30T23:02:48.085Z,31.70
2022-09-30T23:05:18.416Z,36.68
2022-09-30T23:07:48.130Z,33.58
2022-09-30T23:10:21.326Z,30.77
2022-09-30T23:12:52.545Z,31.42
2022-09-30T23:15:22.703Z,31.60
2022-09-30T23:17:54.261Z,32.70
2022-09-30T23:20:24.748Z,32.15
2022-09-30T23:22:54.747Z,32.17
2022-09-30T23:25:24.998Z,33.70
2022-09-30T23:27:54.586Z,34.18
2022-09-30T23:30:30.158Z,32.93
2022-09-30T23:33:05.152Z,30.75
2022-09-30T23:35:34.701Z,31.55
2022-09-30T23:38:03.915Z,35.28
2022-09-30T23:40:33.671Z,33.40
2022-09-30T23:43:04.130Z,29.37
2022-09-30T23:45:33.651Z,30.77
2022-09-30T23:48:05.391Z,31.90
2022-09-30T23:50:35.139Z,31.77
2022-09-30T23:53:05.069Z,34.80
2022-09-30T23:55:35.263Z,34.15
2022-09-30T23:58:06.474Z,34.23
